Time;durP1;ratioP1;P1;durP2;ratioP2;P2;SDS_P1;SDS_P2;PMS_P1;PMS_P2;Temp;Humidity;BMP_temperature;BMP_pressure;BME280_temperature;BME280_humidity;BME280_pressure;Samples;Min_cycle;Max_cycle;Signal;HPM_P1;HPM_P2
2022/05/22 00:01:20;;;;;;;;;;;13.10;81.40;;;;;;5014023;28;20017;-85
2022/05/22 00:03:46;;;;;;;;;;;13.10;81.10;;;;;;5023838;28;19960;-85
2022/05/22 00:06:11;;;;;;;;;;;13.10;81.30;;;;;;5019555;28;20303;-86
2022/05/22 00:08:37;;;;;;;;;;;13.10;81.20;;;;;;5012575;28;19920;-86
2022/05/22 00:11:02;;;;;;;;;;;13.10;81.40;;;;;;5011853;28;20344;-86
2022/05/22 00:13:28;;;;;;;;;;;13.20;81.00;;;;;;5025026;28;19967;-85
2022/05/22 00:18:38;;;;;;;;;;;13.20;81.20;;;;;;5010257;28;19963;-86
2022/05/22 00:21:03;;;;;;;;;;;13.30;81.40;;;;;;5019256;28;19913;-85
2022/05/22 00:23:31;;;;;;;;;;;13.30;81.50;;;;;;5013505;28;20249;-86
2022/05/22 00:25:57;;;;;;;;;;;13.30;81.60;;;;;;5027481;28;19914;-85
2022/05/22 00:28:22;;;;;;;;;;;13.20;81.80;;;;;;5016191;28;19991;-85
2022/05/22 00:30:48;;;;;;;;;;;13.30;81.40;;;;;;5027039;28;20494;-85
2022/05/22 00:33:13;;;;;;;;;;;13.30;81.40;;;;;;5015119;28;19975;-85
2022/05/22 00:35:39;;;;;;;;;;;13.30;81.50;;;;;;5019485;28;19921;-86
2022/05/22 00:38:05;;;;;;;;;;;13.20;81.50;;;;;;5011383;28;19924;-85
2022/05/22 00:40:30;;;;;;;;;;;13.30;81.40;;;;;;5014078;28;19960;-85
2022/05/22 00:42:56;;;;;;;;;;;13.30;81.80;;;;;;5031218;28;19992;-85
2022/05/22 00:45:22;;;;;;;;;;;13.30;81.90;;;;;;5017469;28;19914;-85
2022/05/22 00:47:47;;;;;;;;;;;13.30;81.90;;;;;;5033345;28;19918;-85
2022/05/22 00:50:13;;;;;;;;;;;13.20;81.90;;;;;;5008967;28;19973;-85
2022/05/22 00:52:40;;;;;;;;;;;13.30;82.10;;;;;;5006416;28;19998;-85
2022/05/22 00:55:10;;;;;;;;;;;13.30;82.00;;;;;;5022386;28;19913;-85
2022/05/22 00:57:38;;;;;;;;;;;13.30;81.80;;;;;;5031607;28;19917;-86
2022/05/22 01:00:07;;;;;;;;;;;13.30;82.10;;;;;;5046461;28;19909;-86
2022/05/22 01:03:26;;;;;;;;;;;13.30;82.40;;;;;;5029437;28;19956;-85
2022/05/22 01:05:21;;;;;;;;;;;13.30;82.40;;;;;;5008548;28;19917;-86
2022/05/22 01:07:46;;;;;;;;;;;13.40;82.30;;;;;;5034083;28;19921;-85
2022/05/22 01:10:13;;;;;;;;;;;13.40;82.00;;;;;;5019661;28;19910;-86
2022/05/22 01:12:40;;;;;;;;;;;13.30;81.60;;;;;;5021589;28;19920;-86
2022/05/22 01:15:06;;;;;;;;;;;13.30;81.60;;;;;;5020053;28;19914;-85
2022/05/22 01:17:37;;;;;;;;;;;13.40;81.80;;;;;;5026954;28;19917;-85
2022/05/22 01:20:03;;;;;;;;;;;13.30;81.80;;;;;;5027647;28;19917;-86
2022/05/22 01:22:29;;;;;;;;;;;13.30;81.40;;;;;;5009123;28;19917;-85
2022/05/22 01:24:55;;;;;;;;;;;13.30;81.20;;;;;;5013279;28;20315;-85
2022/05/22 01:27:21;;;;;;;;;;;13.20;81.30;;;;;;5022507;28;20005;-86
2022/05/22 01:29:46;;;;;;;;;;;13.20;81.40;;;;;;5026346;28;20342;-85
2022/05/22 01:32:12;;;;;;;;;;;13.10;81.30;;;;;;5025242;28;19941;-85
2022/05/22 01:34:37;;;;;;;;;;;13.20;80.90;;;;;;5014937;28;19939;-86
2022/05/22 01:37:03;;;;;;;;;;;13.10;81.20;;;;;;5028372;28;19963;-86
2022/05/22 01:39:31;;;;;;;;;;;13.00;81.80;;;;;;5027910;28;19913;-87
2022/05/22 01:41:57;;;;;;;;;;;12.80;82.10;;;;;;5008241;28;19918;-86
2022/05/22 01:44:23;;;;;;;;;;;12.90;82.60;;;;;;5007761;28;20380;-86
2022/05/22 01:46:49;;;;;;;;;;;12.80;82.70;;;;;;5013391;28;20105;-85
2022/05/22 01:49:14;;;;;;;;;;;12.80;83.00;;;;;;5006212;28;20148;-87
2022/05/22 01:51:41;;;;;;;;;;;12.80;82.90;;;;;;5032612;28;19976;-86
2022/05/22 01:54:07;;;;;;;;;;;12.70;82.80;;;;;;5039572;28;19929;-85
2022/05/22 01:56:33;;;;;;;;;;;12.70;83.50;;;;;;5023044;28;19988;-86
2022/05/22 01:58:59;;;;;;;;;;;12.70;83.30;;;;;;5024666;28;20298;-86
2022/05/22 02:01:24;;;;;;;;;;;12.80;83.00;;;;;;5015325;28;20119;-86
2022/05/22 02:03:49;;;;;;;;;;;12.80;82.80;;;;;;5026414;28;19921;-86
2022/05/22 02:06:15;;;;;;;;;;;12.80;82.70;;;;;;5008072;28;19983;-86
2022/05/22 02:08:42;;;;;;;;;;;12.80;82.80;;;;;;5019330;28;19968;-86
2022/05/22 02:11:07;;;;;;;;;;;12.70;82.40;;;;;;5010320;28;19914;-86
2022/05/22 02:13:34;;;;;;;;;;;12.60;82.60;;;;;;5033333;28;19995;-86
2022/05/22 02:16:00;;;;;;;;;;;12.50;82.70;;;;;;5012143;22;20024;-77
2022/05/22 02:18:25;;;;;;;;;;;12.60;82.80;;;;;;4987521;28;20009;-77
2022/05/22 02:20:51;;;;;;;;;;;12.60;82.50;;;;;;4981152;28;19941;-76
2022/05/22 02:23:17;;;;;;;;;;;12.60;82.50;;;;;;4987167;28;19952;-76
2022/05/22 02:25:44;;;;;;;;;;;12.60;82.70;;;;;;4977328;28;20359;-76
2022/05/22 02:28:11;;;;;;;;;;;12.30;82.80;;;;;;4981884;28;19909;-76
2022/05/22 02:30:39;;;;;;;;;;;12.20;83.40;;;;;;4981887;28;19917;-75
2022/05/22 02:33:05;;;;;;;;;;;12.10;83.60;;;;;;4985393;28;19952;-75
2022/05/22 02:35:30;;;;;;;;;;;12.20;83.50;;;;;;4988524;28;19910;-76
2022/05/22 02:37:56;;;;;;;;;;;12.10;83.40;;;;;;4988210;28;20303;-76
2022/05/22 02:40:23;;;;;;;;;;;12.20;83.40;;;;;;4986417;28;20410;-76
2022/05/22 02:42:49;;;;;;;;;;;12.10;83.60;;;;;;4989934;28;19922;-76
2022/05/22 02:45:16;;;;;;;;;;;12.10;83.70;;;;;;4989174;28;19914;-76
2022/05/22 02:47:42;;;;;;;;;;;12.10;83.80;;;;;;4986833;28;20019;-76
2022/05/22 02:50:09;;;;;;;;;;;12.10;84.30;;;;;;4983011;28;20110;-75
2022/05/22 02:52:34;;;;;;;;;;;12.20;84.40;;;;;;4983227;28;19928;-76
2022/05/22 02:55:00;;;;;;;;;;;12.20;84.30;;;;;;4986987;28;19930;-75
2022/05/22 02:57:26;;;;;;;;;;;12.20;83.90;;;;;;4987302;28;19921;-76
2022/05/22 02:59:52;;;;;;;;;;;12.10;84.10;;;;;;4983714;28;20413;-75
2022/05/22 03:02:18;;;;;;;;;;;12.10;84.00;;;;;;4983925;28;20388;-76
2022/05/22 03:04:44;;;;;;;;;;;12.20;83.70;;;;;;4993050;28;20006;-76
2022/05/22 03:07:14;;;;;;;;;;;12.30;84.00;;;;;;4987454;28;19976;-76
2022/05/22 03:09:41;;;;;;;;;;;12.30;84.00;;;;;;4988132;28;19980;-76
2022/05/22 03:12:07;;;;;;;;;;;12.20;83.90;;;;;;4985639;28;19913;-76
2022/05/22 03:14:32;;;;;;;;;;;12.30;83.70;;;;;;4981910;28;20104;-76
2022/05/22 03:16:58;;;;;;;;;;;12.30;83.80;;;;;;4985097;28;20013;-76
2022/05/22 03:19:23;;;;;;;;;;;12.40;83.90;;;;;;4986610;28;20317;-75
2022/05/22 03:21:50;;;;;;;;;;;12.30;83.60;;;;;;4990320;28;19913;-75
2022/05/22 03:24:15;;;;;;;;;;;12.40;83.30;;;;;;4990266;28;20501;-76
2022/05/22 03:26:41;;;;;;;;;;;12.40;83.20;;;;;;4990657;28;20028;-76
2022/05/22 03:29:06;;;;;;;;;;;12.40;83.20;;;;;;4989780;28;19918;-75
2022/05/22 03:31:32;;;;;;;;;;;12.40;83.00;;;;;;4984798;28;20444;-75
2022/05/22 03:33:57;;;;;;;;;;;12.40;83.20;;;;;;4983314;28;19945;-75
2022/05/22 03:36:23;;;;;;;;;;;12.40;83.30;;;;;;4983243;28;20259;-75
2022/05/22 03:38:48;;;;;;;;;;;12.40;83.40;;;;;;4985562;28;19918;-75
2022/05/22 03:41:14;;;;;;;;;;;12.50;82.40;;;;;;4988416;28;19914;-76
2022/05/22 03:43:39;;;;;;;;;;;12.20;83.20;;;;;;4981524;28;19918;-75
2022/05/22 03:46:05;;;;;;;;;;;12.30;83.60;;;;;;4989950;28;19914;-76
2022/05/22 03:48:30;;;;;;;;;;;12.30;83.70;;;;;;4989923;28;19956;-75
2022/05/22 03:50:56;;;;;;;;;;;12.10;83.70;;;;;;4989018;28;19918;-75
2022/05/22 03:53:21;;;;;;;;;;;12.10;84.00;;;;;;4991009;28;20413;-75
2022/05/22 03:55:47;;;;;;;;;;;12.10;84.00;;;;;;4985519;28;19941;-75
2022/05/22 03:58:15;;;;;;;;;;;12.10;83.80;;;;;;4984586;28;20027;-76
2022/05/22 04:00:42;;;;;;;;;;;12.00;84.20;;;;;;4987821;28;20405;-75
2022/05/22 04:03:07;;;;;;;;;;;12.00;84.00;;;;;;4983477;28;19914;-75
2022/05/22 04:05:32;;;;;;;;;;;12.10;84.00;;;;;;4988454;28;19980;-75
2022/05/22 04:07:58;;;;;;;;;;;12.10;83.90;;;;;;4998426;28;19925;-75
2022/05/22 04:10:24;;;;;;;;;;;12.00;84.10;;;;;;4990837;28;20305;-75
2022/05/22 04:12:49;;;;;;;;;;;12.00;84.40;;;;;;4991682;28;19921;-75
2022/05/22 04:15:18;;;;;;;;;;;11.90;84.30;;;;;;4990315;28;20365;-75
2022/05/22 04:17:44;;;;;;;;;;;12.00;84.30;;;;;;4969056;28;19926;-75
2022/05/22 04:20:10;;;;;;;;;;;12.00;84.30;;;;;;4974782;28;19941;-75
2022/05/22 04:25:11;;;;;;;;;;;12.00;84.40;;;;;;4982965;28;20000;-75
2022/05/22 04:25:24;;;;;;;;;;;12.00;84.30;;;;;;4990003;28;20100;-75
2022/05/22 04:27:49;;;;;;;;;;;12.10;84.70;;;;;;4984327;28;20008;-75
2022/05/22 04:30:18;;;;;;;;;;;12.10;84.40;;;;;;4985530;28;19921;-75
2022/05/22 04:32:45;;;;;;;;;;;12.10;84.60;;;;;;4989598;28;19949;-75
2022/05/22 04:35:10;;;;;;;;;;;12.20;84.80;;;;;;4986119;28;20300;-75
2022/05/22 04:37:36;;;;;;;;;;;12.30;84.50;;;;;;4988510;28;19941;-75
2022/05/22 04:40:01;;;;;;;;;;;12.50;84.30;;;;;;4986950;28;19914;-75
2022/05/22 04:42:27;;;;;;;;;;;12.60;83.80;;;;;;4977239;28;19914;-75
2022/05/22 04:44:52;;;;;;;;;;;12.70;83.30;;;;;;4976522;28;19917;-76
2022/05/22 04:47:18;;;;;;;;;;;12.90;83.50;;;;;;4964406;28;20052;-76
2022/05/22 04:49:43;;;;;;;;;;;13.00;83.20;;;;;;4987066;28;19922;-76
2022/05/22 04:52:08;;;;;;;;;;;13.00;83.20;;;;;;4988163;28;20044;-75
2022/05/22 04:54:34;;;;;;;;;;;13.10;83.30;;;;;;4989968;28;19953;-75
2022/05/22 04:57:01;;;;;;;;;;;13.10;82.90;;;;;;4990812;28;19913;-75
2022/05/22 04:59:26;;;;;;;;;;;13.20;82.90;;;;;;4987133;28;19914;-76
2022/05/22 05:01:52;;;;;;;;;;;13.10;82.80;;;;;;4987951;28;19914;-79
2022/05/22 05:04:17;;;;;;;;;;;13.10;82.90;;;;;;4996444;28;19972;-77
2022/05/22 05:06:43;;;;;;;;;;;13.10;83.30;;;;;;4990042;28;19914;-77
2022/05/22 05:09:08;;;;;;;;;;;13.00;83.00;;;;;;4993274;28;20306;-77
2022/05/22 05:11:34;;;;;;;;;;;13.10;82.90;;;;;;4989634;28;19922;-77
2022/05/22 05:13:59;;;;;;;;;;;13.30;83.00;;;;;;4999228;28;20040;-77
2022/05/22 05:16:25;;;;;;;;;;;13.30;82.30;;;;;;4986338;28;20016;-77
2022/05/22 05:18:50;;;;;;;;;;;13.40;82.30;;;;;;4993944;28;19920;-77
2022/05/22 05:21:17;;;;;;;;;;;13.30;82.10;;;;;;4988512;28;19922;-77
2022/05/22 05:23:42;;;;;;;;;;;13.30;82.30;;;;;;4986436;28;20789;-78
2022/05/22 05:26:08;;;;;;;;;;;13.40;81.80;;;;;;4989557;28;19914;-78
2022/05/22 05:28:33;;;;;;;;;;;13.50;80.80;;;;;;5006535;28;19949;-77
2022/05/22 05:30:59;;;;;;;;;;;13.60;80.80;;;;;;5005620;28;19921;-76
2022/05/22 05:33:25;;;;;;;;;;;13.70;80.30;;;;;;4988887;28;20267;-76
2022/05/22 05:35:51;;;;;;;;;;;13.60;80.30;;;;;;4985319;28;20508;-76
2022/05/22 05:38:16;;;;;;;;;;;13.60;79.90;;;;;;4985026;28;19944;-79
2022/05/22 05:40:42;;;;;;;;;;;13.40;80.80;;;;;;4982238;28;19953;-77
2022/05/22 05:43:08;;;;;;;;;;;13.20;81.80;;;;;;4967075;28;20036;-76
2022/05/22 05:45:33;;;;;;;;;;;13.20;82.40;;;;;;4976596;28;19921;-76
2022/05/22 05:47:59;;;;;;;;;;;13.10;82.20;;;;;;4981381;28;20409;-77
2022/05/22 05:50:26;;;;;;;;;;;13.10;83.00;;;;;;4974943;28;19914;-77
2022/05/22 05:52:56;;;;;;;;;;;13.00;82.90;;;;;;4983202;28;20009;-76
2022/05/22 05:55:22;;;;;;;;;;;13.00;83.50;;;;;;4983311;28;20025;-76
2022/05/22 05:57:48;;;;;;;;;;;12.90;83.70;;;;;;4981852;28;20016;-76
2022/05/22 06:00:16;;;;;;;;;;;13.00;84.20;;;;;;4974738;28;19933;-76
2022/05/22 06:02:42;;;;;;;;;;;13.00;84.00;;;;;;4977432;28;20307;-77
2022/05/22 06:05:07;;;;;;;;;;;13.10;83.70;;;;;;4987473;28;20032;-77
2022/05/22 06:07:33;;;;;;;;;;;13.30;83.90;;;;;;4985335;28;20349;-77
2022/05/22 06:09:59;;;;;;;;;;;13.50;83.20;;;;;;4984036;28;19941;-77
2022/05/22 06:12:24;;;;;;;;;;;13.60;82.80;;;;;;4982222;28;19977;-77
2022/05/22 06:14:50;;;;;;;;;;;13.70;82.30;;;;;;4984533;28;19922;-77
2022/05/22 06:17:16;;;;;;;;;;;13.80;81.70;;;;;;4982614;28;19918;-77
2022/05/22 06:19:59;;;;;;;;;;;14.00;82.20;;;;;;4976584;28;20001;-77
2022/05/22 06:22:26;;;;;;;;;;;14.00;80.90;;;;;;4985649;28;19949;-77
2022/05/22 06:24:53;;;;;;;;;;;14.00;80.60;;;;;;4965192;28;19968;-76
2022/05/22 06:27:18;;;;;;;;;;;14.00;80.60;;;;;;4984978;28;19920;-76
2022/05/22 06:29:44;;;;;;;;;;;14.00;80.90;;;;;;4981857;28;19914;-78
2022/05/22 06:32:11;;;;;;;;;;;14.10;81.50;;;;;;4981389;28;20250;-78
2022/05/22 06:34:41;;;;;;;;;;;14.10;80.00;;;;;;4981978;28;19921;-81
2022/05/22 06:37:08;;;;;;;;;;;14.30;78.80;;;;;;4982362;28;19969;-81
2022/05/22 06:39:49;;;;;;;;;;;14.50;79.00;;;;;;4992513;28;19918;-77
2022/05/22 06:42:30;;;;;;;;;;;14.60;79.00;;;;;;4988078;28;19924;-76
2022/05/22 06:45:00;;;;;;;;;;;14.80;78.80;;;;;;4985024;28;19914;-76
2022/05/22 06:47:26;;;;;;;;;;;14.80;77.30;;;;;;5002985;28;19913;-77
2022/05/22 06:49:52;;;;;;;;;;;14.70;76.20;;;;;;4987822;28;19925;-76
2022/05/22 06:52:18;;;;;;;;;;;14.70;77.20;;;;;;4984298;28;19917;-80
2022/05/22 06:54:44;;;;;;;;;;;14.90;76.40;;;;;;4990065;28;19936;-77
2022/05/22 06:57:09;;;;;;;;;;;15.10;74.70;;;;;;4990447;28;19938;-79
2022/05/22 06:59:35;;;;;;;;;;;15.10;74.80;;;;;;4989561;28;19918;-80
2022/05/22 07:02:00;;;;;;;;;;;15.00;75.50;;;;;;4975526;28;19960;-80
2022/05/22 07:04:26;;;;;;;;;;;14.90;75.00;;;;;;4979659;28;19918;-80
2022/05/22 07:06:52;;;;;;;;;;;14.70;74.30;;;;;;4991209;28;20354;-79
2022/05/22 07:09:17;;;;;;;;;;;14.80;75.40;;;;;;4985087;28;19933;-80
2022/05/22 07:11:43;;;;;;;;;;;14.90;74.70;;;;;;4986262;28;20354;-81
2022/05/22 07:14:10;;;;;;;;;;;15.00;73.80;;;;;;4988428;28;20017;-80
2022/05/22 07:16:36;;;;;;;;;;;15.20;74.30;;;;;;4983965;28;20354;-81
2022/05/22 07:19:02;;;;;;;;;;;15.40;72.40;;;;;;4987275;28;19918;-82
2022/05/22 07:21:28;;;;;;;;;;;15.60;72.70;;;;;;4985246;28;19913;-80
2022/05/22 07:23:53;;;;;;;;;;;15.60;73.20;;;;;;4985119;28;19928;-83
2022/05/22 07:26:21;;;;;;;;;;;15.80;73.00;;;;;;4986311;28;19953;-80
2022/05/22 07:28:46;;;;;;;;;;;15.80;73.40;;;;;;4988162;28;19914;-78
2022/05/22 07:31:16;;;;;;;;;;;15.80;72.50;;;;;;4985020;28;20309;-83
2022/05/22 07:33:41;;;;;;;;;;;15.80;73.70;;;;;;4986935;28;20091;-81
2022/05/22 07:36:07;;;;;;;;;;;15.80;73.00;;;;;;4999091;28;20031;-82
2022/05/22 07:38:32;;;;;;;;;;;15.60;71.90;;;;;;4989077;28;19937;-82
2022/05/22 07:40:58;;;;;;;;;;;15.60;73.10;;;;;;4973751;28;20465;-83
2022/05/22 07:43:24;;;;;;;;;;;15.60;73.20;;;;;;4970404;28;19924;-88
2022/05/22 07:45:49;;;;;;;;;;;15.60;72.60;;;;;;5005093;28;19910;-84
2022/05/22 07:48:15;;;;;;;;;;;15.60;72.20;;;;;;4987883;28;20371;-84
2022/05/22 07:50:41;;;;;;;;;;;15.70;72.90;;;;;;4990598;28;19975;-85
2022/05/22 07:53:07;;;;;;;;;;;15.80;73.40;;;;;;4981592;28;19934;-79
2022/05/22 07:55:32;;;;;;;;;;;15.90;73.60;;;;;;4982852;28;19958;-84
2022/05/22 07:57:58;;;;;;;;;;;16.00;72.10;;;;;;4989430;28;19993;-84
2022/05/22 08:00:24;;;;;;;;;;;16.20;69.80;;;;;;4988034;28;19921;-80
2022/05/22 08:02:49;;;;;;;;;;;16.20;70.60;;;;;;4984207;28;20378;-82
2022/05/22 08:05:20;;;;;;;;;;;16.10;69.80;;;;;;4988525;28;19929;-83
2022/05/22 08:07:45;;;;;;;;;;;16.20;71.60;;;;;;4981978;28;20012;-84
2022/05/22 08:10:12;;;;;;;;;;;16.20;69.80;;;;;;4992335;28;19949;-82
2022/05/22 08:12:40;;;;;;;;;;;16.10;68.80;;;;;;4966684;28;19981;-83
2022/05/22 08:15:06;;;;;;;;;;;16.20;69.60;;;;;;4983025;28;19918;-81
2022/05/22 08:17:48;;;;;;;;;;;;;;;;;;;;;
2022/05/22 08:20:19;;;;;;;;;;;16.50;69.50;;;;;;4990077;28;19993;-80
2022/05/22 08:22:55;;;;;;;;;;;16.60;69.00;;;;;;4971037;28;20230;-87
2022/05/22 08:25:21;;;;;;;;;;;16.60;68.90;;;;;;4984857;23;19934;-81
2022/05/22 08:27:51;;;;;;;;;;;16.60;68.00;;;;;;4986325;28;19914;-77
2022/05/22 08:30:20;;;;;;;;;;;16.60;66.80;;;;;;4969753;28;19919;-78
2022/05/22 08:33:02;;;;;;;;;;;16.60;66.80;;;;;;4971132;28;19914;-77
2022/05/22 08:35:31;;;;;;;;;;;16.50;65.30;;;;;;4991682;28;21387;-77
2022/05/22 08:38:04;;;;;;;;;;;16.80;64.80;;;;;;4981478;28;19953;-76
2022/05/22 08:40:50;;;;;;;;;;;17.00;64.40;;;;;;4983067;28;19918;-78
2022/05/22 08:43:22;;;;;;;;;;;16.90;64.80;;;;;;4927878;28;19981;-76
2022/05/22 08:46:13;;;;;;;;;;;;;;;;;;;;;
2022/05/22 08:48:44;;;;;;;;;;;17.00;66.00;;;;;;4962713;28;19921;-77
2022/05/22 08:51:17;;;;;;;;;;;17.00;64.90;;;;;;4969322;28;19921;-77
2022/05/22 08:53:52;;;;;;;;;;;17.10;63.80;;;;;;4967483;28;19922;-77
2022/05/22 08:59:06;;;;;;;;;;;17.10;65.30;;;;;;4970499;28;19925;-77
2022/05/22 09:01:53;;;;;;;;;;;17.10;63.50;;;;;;4968350;28;19918;-77
2022/05/22 09:04:28;;;;;;;;;;;17.30;63.80;;;;;;4970026;28;20380;-77
2022/05/22 09:07:05;;;;;;;;;;;17.30;63.40;;;;;;4969347;28;20008;-77
2022/05/22 09:09:32;;;;;;;;;;;17.30;64.90;;;;;;4967321;28;20267;-77
2022/05/22 09:12:13;;;;;;;;;;;17.50;65.80;;;;;;4969144;28;19922;-77
2022/05/22 09:15:05;;;;;;;;;;;17.50;66.20;;;;;;4965675;28;20286;-77
2022/05/22 09:17:32;;;;;;;;;;;17.60;68.60;;;;;;4944993;28;19925;-77
2022/05/22 09:20:33;;;;;;;;;;;17.50;65.60;;;;;;4967066;28;20382;-77
2022/05/22 09:23:06;;;;;;;;;;;17.40;65.40;;;;;;4929513;29;19914;-77
2022/05/22 09:25:31;;;;;;;;;;;17.50;64.70;;;;;;4977401;28;20421;-77
2022/05/22 09:27:57;;;;;;;;;;;17.60;64.70;;;;;;4967055;28;19945;-77
2022/05/22 09:30:25;;;;;;;;;;;17.70;64.80;;;;;;4967840;28;19921;-77
2022/05/22 09:33:06;;;;;;;;;;;17.90;64.70;;;;;;4973009;28;19921;-78
2022/05/22 09:35:46;;;;;;;;;;;17.70;65.30;;;;;;4970838;28;19918;-77
2022/05/22 09:38:29;;;;;;;;;;;17.60;64.00;;;;;;4970603;28;19918;-78
2022/05/22 09:41:18;;;;;;;;;;;17.80;65.20;;;;;;4972404;28;19914;-77
2022/05/22 09:43:56;;;;;;;;;;;17.90;65.50;;;;;;4964454;28;19928;-79
2022/05/22 09:46:35;;;;;;;;;;;18.00;63.10;;;;;;4976246;28;19914;-78
2022/05/22 09:49:14;;;;;;;;;;;17.80;62.20;;;;;;4974645;28;19929;-78
2022/05/22 09:51:58;;;;;;;;;;;17.80;61.80;;;;;;4973848;28;19914;-78
2022/05/22 09:54:23;;;;;;;;;;;17.80;62.40;;;;;;4971042;28;19922;-76
2022/05/22 09:56:58;;;;;;;;;;;18.00;63.60;;;;;;4975693;28;19918;-77
2022/05/22 09:59:49;;;;;;;;;;;18.20;60.50;;;;;;4971855;28;19941;-78
2022/05/22 10:02:23;;;;;;;;;;;18.20;59.90;;;;;;4969344;28;19929;-76
2022/05/22 10:04:53;;;;;;;;;;;18.20;61.20;;;;;;4975066;28;19914;-78
2022/05/22 10:07:28;;;;;;;;;;;18.10;61.20;;;;;;4970571;28;20024;-78
2022/05/22 10:10:06;;;;;;;;;;;18.10;61.50;;;;;;4967275;28;19936;-78
2022/05/22 10:12:33;;;;;;;;;;;18.30;59.80;;;;;;4972980;28;19979;-78
2022/05/22 10:14:59;;;;;;;;;;;18.50;58.60;;;;;;4973858;28;19941;-76
2022/05/22 10:17:44;;;;;;;;;;;18.20;60.90;;;;;;4971683;28;19918;-77
2022/05/22 10:20:23;;;;;;;;;;;18.20;60.60;;;;;;4971902;28;20411;-76
2022/05/22 10:23:04;;;;;;;;;;;18.10;60.50;;;;;;4971220;28;19914;-77
2022/05/22 10:25:32;;;;;;;;;;;18.10;58.50;;;;;;4973063;28;20002;-78
2022/05/22 10:28:04;;;;;;;;;;;18.30;59.40;;;;;;4963455;28;20016;-76
2022/05/22 10:30:30;;;;;;;;;;;18.40;60.00;;;;;;4991326;28;19914;-78
2022/05/22 10:32:59;;;;;;;;;;;18.70;57.60;;;;;;4962639;28;20027;-78
2022/05/22 10:35:26;;;;;;;;;;;18.80;57.20;;;;;;4987737;28;19973;-78
2022/05/22 10:38:03;;;;;;;;;;;19.10;56.30;;;;;;4977171;28;20326;-77
2022/05/22 10:42:44;;;;;;;;;;;19.00;57.90;;;;;;4961677;28;19914;-77
2022/05/22 10:43:15;;;;;;;;;;;19.00;57.40;;;;;;4977847;28;20371;-77
2022/05/22 10:45:43;;;;;;;;;;;18.90;58.80;;;;;;4978946;28;19918;-79
2022/05/22 10:48:17;;;;;;;;;;;19.00;58.00;;;;;;4975674;28;19914;-81
2022/05/22 10:50:52;;;;;;;;;;;19.10;58.40;;;;;;4979048;28;19929;-77
2022/05/22 10:53:21;;;;;;;;;;;19.40;55.70;;;;;;4979991;28;19933;-78
2022/05/22 10:55:47;;;;;;;;;;;19.40;58.00;;;;;;4978616;28;19969;-76
2022/05/22 10:58:20;;;;;;;;;;;19.50;57.70;;;;;;4977962;28;19949;-78
2022/05/22 11:00:53;;;;;;;;;;;19.70;56.20;;;;;;4976673;28;19971;-78
2022/05/22 11:03:26;;;;;;;;;;;19.80;56.50;;;;;;4974207;28;19914;-78
2022/05/22 11:05:52;;;;;;;;;;;19.90;55.00;;;;;;4973149;28;19918;-79
2022/05/22 11:08:28;;;;;;;;;;;19.80;58.70;;;;;;4958964;28;19921;-78
2022/05/22 11:10:54;;;;;;;;;;;19.90;60.10;;;;;;4979891;28;20291;-78
2022/05/22 11:13:22;;;;;;;;;;;19.90;59.00;;;;;;4980543;28;19918;-78
2022/05/22 11:15:47;;;;;;;;;;;20.10;59.60;;;;;;4977548;28;19921;-78
2022/05/22 11:18:21;;;;;;;;;;;20.20;57.30;;;;;;4976473;28;19922;-78
2022/05/22 11:21:01;;;;;;;;;;;20.40;55.50;;;;;;4954174;28;19918;-78
2022/05/22 11:23:30;;;;;;;;;;;20.20;56.50;;;;;;4972999;28;19916;-78
2022/05/22 11:26:14;;;;;;;;;;;20.50;57.70;;;;;;4976280;28;20395;-78
2022/05/22 11:28:51;;;;;;;;;;;20.60;57.50;;;;;;4973245;28;19914;-79
2022/05/22 11:31:35;;;;;;;;;;;20.30;55.90;;;;;;4956299;28;20772;-78
2022/05/22 11:34:08;;;;;;;;;;;20.20;55.20;;;;;;4973596;28;19914;-78
2022/05/22 11:36:43;;;;;;;;;;;20.40;55.70;;;;;;4973374;28;19926;-78
2022/05/22 11:39:17;;;;;;;;;;;20.60;55.30;;;;;;4970633;28;19992;-78
2022/05/22 11:41:47;;;;;;;;;;;20.50;53.60;;;;;;4965216;28;19997;-78
2022/05/22 11:44:19;;;;;;;;;;;20.30;53.30;;;;;;4956492;28;19937;-78
2022/05/22 11:46:52;;;;;;;;;;;20.30;53.10;;;;;;4973640;28;19986;-78
2022/05/22 11:49:38;;;;;;;;;;;20.10;54.40;;;;;;4965244;28;19969;-76
2022/05/22 11:53:04;;;;;;;;;;;19.80;54.60;;;;;;4969087;28;21711;-76
2022/05/22 11:55:26;;;;;;;;;;;20.00;54.50;;;;;;4971259;28;19914;-76
2022/05/22 11:57:57;;;;;;;;;;;20.10;54.40;;;;;;4971464;28;20397;-77
2022/05/22 12:00:28;;;;;;;;;;;20.00;55.70;;;;;;4962404;28;20407;-77
2022/05/22 12:03:06;;;;;;;;;;;19.80;59.40;;;;;;4957804;28;19914;-76
2022/05/22 12:05:38;;;;;;;;;;;19.60;57.80;;;;;;4970713;28;19934;-76
2022/05/22 12:08:16;;;;;;;;;;;19.50;58.50;;;;;;4971055;28;19914;-77
2022/05/22 12:10:49;;;;;;;;;;;19.90;53.20;;;;;;4971588;28;20005;-77
2022/05/22 12:13:27;;;;;;;;;;;19.80;54.80;;;;;;4971745;28;19914;-77
2022/05/22 12:15:59;;;;;;;;;;;20.00;56.10;;;;;;4969937;28;21799;-77
2022/05/22 12:18:47;;;;;;;;;;;20.10;53.30;;;;;;4971865;28;19961;-77
2022/05/22 12:21:15;;;;;;;;;;;20.10;54.40;;;;;;4968006;28;19997;-77
2022/05/22 12:23:43;;;;;;;;;;;20.10;55.50;;;;;;4971930;28;19921;-77
2022/05/22 12:26:13;;;;;;;;;;;20.00;54.00;;;;;;4970761;28;19926;-78
2022/05/22 12:28:46;;;;;;;;;;;20.20;55.30;;;;;;4970863;28;19933;-77
2022/05/22 12:31:19;;;;;;;;;;;20.50;51.80;;;;;;4970855;28;19922;-77
2022/05/22 12:33:44;;;;;;;;;;;20.60;53.10;;;;;;4967840;28;20312;-77
2022/05/22 12:36:11;;;;;;;;;;;20.80;55.00;;;;;;4957188;28;20045;-78
2022/05/22 12:38:46;;;;;;;;;;;20.60;54.20;;;;;;4970860;28;19918;-77
2022/05/22 12:41:25;;;;;;;;;;;20.90;51.90;;;;;;4970218;28;20409;-77
2022/05/22 12:43:52;;;;;;;;;;;20.90;53.70;;;;;;4972678;28;19914;-77
2022/05/22 12:46:18;;;;;;;;;;;20.80;55.80;;;;;;4972986;28;20370;-77
2022/05/22 12:48:44;;;;;;;;;;;20.70;52.90;;;;;;4972364;28;20029;-77
2022/05/22 12:51:13;;;;;;;;;;;20.70;53.90;;;;;;4969492;28;20362;-76
2022/05/22 12:53:47;;;;;;;;;;;20.70;52.30;;;;;;4969474;28;19921;-77
2022/05/22 12:56:37;;;;;;;;;;;20.60;52.60;;;;;;4970662;28;19914;-77
2022/05/22 12:59:03;;;;;;;;;;;20.80;52.10;;;;;;4952901;28;19925;-77
2022/05/22 13:01:32;;;;;;;;;;;20.70;52.00;;;;;;4971506;28;19922;-77
2022/05/22 13:04:00;;;;;;;;;;;20.60;53.10;;;;;;4969017;28;20426;-77
2022/05/22 13:06:30;;;;;;;;;;;20.80;51.80;;;;;;4970114;28;20016;-77
2022/05/22 13:09:01;;;;;;;;;;;20.60;53.50;;;;;;4970498;28;19957;-77
2022/05/22 13:11:36;;;;;;;;;;;20.50;53.50;;;;;;4971595;28;19981;-77
2022/05/22 13:14:02;;;;;;;;;;;20.50;54.40;;;;;;4968500;28;19988;-77
2022/05/22 13:16:29;;;;;;;;;;;20.80;52.70;;;;;;4972578;28;19918;-78
2022/05/22 13:18:55;;;;;;;;;;;20.90;56.60;;;;;;4959513;28;20013;-78
2022/05/22 13:21:37;;;;;;;;;;;21.00;52.10;;;;;;4969699;28;20002;-77
2022/05/22 13:24:23;;;;;;;;;;;21.00;52.50;;;;;;4969528;28;19968;-77
2022/05/22 13:27:03;;;;;;;;;;;20.90;52.80;;;;;;4984733;28;19929;-79
2022/05/22 13:29:31;;;;;;;;;;;20.80;52.60;;;;;;4974666;28;20290;-78
2022/05/22 13:31:58;;;;;;;;;;;20.80;53.00;;;;;;4966274;28;19920;-78
2022/05/22 13:34:44;;;;;;;;;;;20.60;53.90;;;;;;4958248;28;20464;-78
2022/05/22 13:37:10;;;;;;;;;;;20.50;54.90;;;;;;4973925;28;20470;-78
2022/05/22 13:39:35;;;;;;;;;;;20.30;54.60;;;;;;4976616;28;19915;-78
2022/05/22 13:42:16;;;;;;;;;;;20.20;53.80;;;;;;4977867;28;19932;-79
2022/05/22 13:44:44;;;;;;;;;;;20.30;54.60;;;;;;4960320;28;19949;-78
2022/05/22 13:47:29;;;;;;;;;;;20.50;55.00;;;;;;4977770;28;19918;-78
2022/05/22 13:52:34;;;;;;;;;;;20.50;54.60;;;;;;4977669;28;19914;-78
2022/05/22 13:53:05;;;;;;;;;;;20.80;52.40;;;;;;4973685;28;19937;-78
2022/05/22 13:55:31;;;;;;;;;;;20.80;52.00;;;;;;4974564;28;19914;-78
2022/05/22 13:58:00;;;;;;;;;;;20.60;53.10;;;;;;4976761;28;19924;-78
2022/05/22 14:00:28;;;;;;;;;;;20.60;53.30;;;;;;4964467;28;20401;-77
2022/05/22 14:03:02;;;;;;;;;;;20.70;54.10;;;;;;4972334;28;19915;-77
2022/05/22 14:05:40;;;;;;;;;;;20.90;52.30;;;;;;4975273;28;19918;-78
2022/05/22 14:08:10;;;;;;;;;;;20.70;54.50;;;;;;4963150;28;19926;-78
2022/05/22 14:10:37;;;;;;;;;;;20.80;52.40;;;;;;4973941;28;19914;-77
2022/05/22 14:13:14;;;;;;;;;;;20.80;55.50;;;;;;4981130;28;19944;-78
2022/05/22 14:15:47;;;;;;;;;;;21.10;53.90;;;;;;4957500;28;19943;-78
2022/05/22 14:18:16;;;;;;;;;;;21.10;52.60;;;;;;4988203;23;19966;-79
2022/05/22 14:20:45;;;;;;;;;;;21.10;52.50;;;;;;4968054;28;20021;-78
2022/05/22 14:23:13;;;;;;;;;;;21.10;52.20;;;;;;4961711;28;19929;-79
2022/05/22 14:25:41;;;;;;;;;;;21.00;51.50;;;;;;4957448;28;19922;-80
2022/05/22 14:28:07;;;;;;;;;;;21.00;52.70;;;;;;4960947;28;19925;-80
2022/05/22 14:30:34;;;;;;;;;;;20.80;52.80;;;;;;4959194;28;20488;-80
2022/05/22 14:33:02;;;;;;;;;;;20.80;54.40;;;;;;4963219;28;19976;-79
2022/05/22 14:35:30;;;;;;;;;;;20.60;53.20;;;;;;4965121;28;19914;-79
2022/05/22 14:37:58;;;;;;;;;;;20.70;53.00;;;;;;4968234;28;19923;-79